Time;durP1;ratioP1;P1;durP2;ratioP2;P2;SDS_P1;SDS_P2;PMS_P1;PMS_P2;Temp;Humidity;BMP_temperature;BMP_pressure;BME280_temperature;BME280_humidity;BME280_pressure;Samples;Min_cycle;Max_cycle;Signal;HPM_P1;HPM_P2
2021/01/22 00:00:24;;;;;;;0.80;0.80;;;10.30;99.90;;;;;;5094461;28;20175;-73
2021/01/22 00:02:50;;;;;;;0.80;0.80;;;10.30;99.90;;;;;;5094024;27;20249;-73
2021/01/22 00:05:16;;;;;;;1.53;0.80;;;10.30;99.90;;;;;;5095332;28;20419;-73
2021/01/22 00:07:42;;;;;;;1.10;1.00;;;10.30;99.90;;;;;;5094249;28;20526;-73
2021/01/22 00:10:08;;;;;;;1.13;1.03;;;10.30;99.90;;;;;;5094050;28;20846;-73
2021/01/22 00:12:34;;;;;;;1.47;1.10;;;10.30;99.90;;;;;;5094516;28;20507;-74
2021/01/22 00:14:59;;;;;;;0.93;0.73;;;10.30;99.90;;;;;;5094998;27;20445;-74
2021/01/22 00:17:24;;;;;;;0.70;0.70;;;10.30;99.90;;;;;;5099049;28;20599;-73
2021/01/22 00:19:50;;;;;;;1.27;0.83;;;10.20;99.90;;;;;;5110468;28;20196;-74
2021/01/22 00:22:16;;;;;;;2.00;1.20;;;10.30;99.90;;;;;;5114590;28;20168;-73
2021/01/22 00:24:41;;;;;;;3.10;1.00;;;10.30;99.90;;;;;;5114141;28;20247;-73
2021/01/22 00:27:07;;;;;;;1.53;0.93;;;10.30;99.90;;;;;;5112551;27;20223;-73
2021/01/22 00:29:32;;;;;;;0.90;0.90;;;10.30;99.90;;;;;;5113638;28;20171;-73
2021/01/22 00:31:58;;;;;;;1.53;1.00;;;10.30;99.90;;;;;;5114317;28;20283;-73
2021/01/22 00:34:23;;;;;;;1.30;1.07;;;10.30;99.90;;;;;;5113809;28;20632;-73
2021/01/22 00:36:49;;;;;;;1.07;1.00;;;10.30;99.90;;;;;;5111790;27;20195;-73
2021/01/22 00:39:15;;;;;;;1.40;1.03;;;10.30;99.90;;;;;;5114272;28;20167;-73
2021/01/22 00:41:41;;;;;;;1.30;1.17;;;10.30;99.90;;;;;;5114348;28;20415;-73
2021/01/22 00:44:06;;;;;;;1.70;0.87;;;10.30;99.90;;;;;;5113796;28;20500;-72
2021/01/22 00:46:32;;;;;;;1.50;1.10;;;10.30;99.90;;;;;;5113817;28;20665;-72
2021/01/22 00:48:57;;;;;;;1.40;1.30;;;10.30;99.90;;;;;;5112512;28;20229;-72
2021/01/22 00:51:23;;;;;;;1.90;1.13;;;10.30;99.90;;;;;;5114249;28;20237;-72
2021/01/22 00:53:48;;;;;;;1.67;1.20;;;10.40;99.90;;;;;;5113631;28;20167;-72
2021/01/22 00:56:14;;;;;;;4.03;1.53;;;10.30;99.90;;;;;;5114267;28;20214;-72
2021/01/22 00:58:39;;;;;;;4.27;1.70;;;10.30;99.90;;;;;;5112615;28;20180;-73
2021/01/22 01:01:05;;;;;;;4.57;1.50;;;10.30;99.90;;;;;;5114394;28;20187;-73
2021/01/22 01:03:31;;;;;;;1.97;1.30;;;10.30;99.90;;;;;;5112415;28;20172;-73
2021/01/22 01:05:56;;;;;;;3.13;1.40;;;10.30;99.90;;;;;;5112361;27;20579;-73
2021/01/22 01:08:22;;;;;;;1.93;1.07;;;10.30;99.90;;;;;;5112645;28;20176;-73
2021/01/22 01:10:47;;;;;;;1.77;1.57;;;10.40;99.90;;;;;;5113883;28;20200;-73
2021/01/22 01:13:13;;;;;;;1.47;1.20;;;10.40;99.90;;;;;;5113873;28;20214;-73
2021/01/22 01:15:38;;;;;;;3.90;1.53;;;10.40;99.90;;;;;;5113892;28;20518;-73
2021/01/22 01:18:04;;;;;;;3.13;1.40;;;10.40;99.90;;;;;;5126243;28;20176;-72
2021/01/22 01:20:31;;;;;;;4.07;1.30;;;10.40;99.90;;;;;;5120162;28;20226;-72
2021/01/22 01:22:57;;;;;;;4.40;1.40;;;10.40;99.90;;;;;;5095587;28;20176;-72
2021/01/22 01:25:23;;;;;;;3.67;1.50;;;10.40;99.90;;;;;;5094012;28;20414;-72
2021/01/22 01:27:48;;;;;;;3.90;1.47;;;10.40;99.90;;;;;;5093742;27;20914;-72
2021/01/22 01:30:15;;;;;;;3.13;1.40;;;10.30;99.90;;;;;;5094867;28;20207;-72
2021/01/22 01:32:40;;;;;;;3.17;1.10;;;10.30;99.90;;;;;;5093146;28;20634;-73
2021/01/22 01:35:06;;;;;;;2.23;1.60;;;10.30;99.90;;;;;;5093225;28;20453;-73
2021/01/22 01:37:32;;;;;;;2.00;1.27;;;10.30;99.90;;;;;;5093545;27;20677;-73
2021/01/22 01:39:57;;;;;;;4.90;1.60;;;10.30;99.90;;;;;;5094767;28;20403;-73
2021/01/22 01:42:23;;;;;;;2.93;1.23;;;10.30;99.90;;;;;;5107065;28;20164;-74
2021/01/22 01:44:48;;;;;;;3.30;1.47;;;10.30;99.90;;;;;;5121030;28;20185;-72
2021/01/22 01:47:14;;;;;;;3.30;1.20;;;10.30;99.90;;;;;;5100938;28;20196;-73
2021/01/22 01:49:39;;;;;;;5.37;1.63;;;10.30;99.90;;;;;;5097297;28;20201;-73
2021/01/22 01:52:05;;;;;;;2.17;1.00;;;10.30;99.90;;;;;;5098559;28;20660;-72
2021/01/22 01:54:32;;;;;;;6.73;1.13;;;10.30;99.90;;;;;;5096851;28;20169;-73
2021/01/22 01:56:58;;;;;;;3.10;1.27;;;10.30;99.90;;;;;;5095059;28;20207;-72
2021/01/22 01:59:24;;;;;;;1.90;1.10;;;10.30;99.90;;;;;;5097327;28;20399;-72
2021/01/22 02:01:51;;;;;;;2.80;1.17;;;10.30;99.90;;;;;;5100720;28;20483;-72
2021/01/22 02:04:16;;;;;;;9.17;1.37;;;10.30;99.90;;;;;;5115904;28;20721;-72
2021/01/22 02:06:42;;;;;;;4.40;2.00;;;10.30;99.90;;;;;;5116966;28;20433;-73
2021/01/22 02:09:08;;;;;;;3.40;1.20;;;10.20;99.90;;;;;;5113579;27;20222;-73
2021/01/22 02:11:34;;;;;;;2.37;1.50;;;10.20;99.90;;;;;;5096176;28;20234;-73
2021/01/22 02:14:01;;;;;;;3.50;1.40;;;10.20;99.90;;;;;;5100012;28;20427;-73
2021/01/22 02:16:27;;;;;;;2.60;0.90;;;10.20;99.90;;;;;;5116793;28;20184;-73
2021/01/22 02:18:54;;;;;;;2.03;1.00;;;10.00;99.90;;;;;;5116889;28;20480;-73
2021/01/22 02:21:33;;;;;;;1.00;0.80;;;9.70;99.90;;;;;;5115345;28;20418;-73
2021/01/22 02:24:19;;;;;;;2.03;0.70;;;9.50;99.90;;;;;;5116707;28;20410;-73
2021/01/22 02:26:57;;;;;;;1.20;0.70;;;9.40;99.90;;;;;;5116747;27;20524;-73
2021/01/22 02:29:25;;;;;;;0.90;0.90;;;9.10;99.90;;;;;;5116840;28;20437;-73
2021/01/22 02:31:53;;;;;;;0.93;0.93;;;9.00;99.90;;;;;;5112136;28;20457;-72
2021/01/22 02:34:23;;;;;;;2.20;1.20;;;8.90;99.90;;;;;;5116901;28;21047;-73
2021/01/22 02:36:51;;;;;;;1.10;1.10;;;8.70;99.90;;;;;;5116664;28;20424;-72
2021/01/22 02:39:19;;;;;;;1.30;1.20;;;8.70;99.90;;;;;;5115860;27;20425;-73
2021/01/22 02:41:45;;;;;;;1.40;1.30;;;8.50;99.90;;;;;;5114755;28;20818;-72
2021/01/22 02:44:11;;;;;;;1.60;1.50;;;8.40;99.90;;;;;;5116042;28;20472;-73
2021/01/22 02:46:38;;;;;;;2.10;1.63;;;8.10;99.90;;;;;;5116569;28;20458;-73
2021/01/22 02:49:04;;;;;;;1.70;1.60;;;7.80;99.90;;;;;;5116827;28;20254;-72
2021/01/22 02:51:30;;;;;;;1.57;1.40;;;7.50;99.90;;;;;;5114558;28;20446;-72
2021/01/22 02:53:55;;;;;;;1.40;1.30;;;7.10;99.90;;;;;;5110469;27;20426;-72
2021/01/22 02:56:47;;;;;;;2.77;2.00;;;6.70;99.90;;;;;;5096118;28;20180;-72
2021/01/22 02:59:40;;;;;;;1.90;1.80;;;6.40;99.90;;;;;;5096073;28;20248;-72
2021/01/22 03:02:18;;;;;;;1.60;1.50;;;6.20;99.90;;;;;;5095563;28;20457;-72
2021/01/22 03:04:44;;;;;;;1.70;1.60;;;6.00;99.90;;;;;;5096743;28;20403;-73
2021/01/22 03:07:16;;;;;;;1.80;1.70;;;6.00;99.90;;;;;;5097078;28;20837;-73
2021/01/22 03:09:45;;;;;;;2.30;2.10;;;6.10;99.90;;;;;;5095776;28;20515;-73
2021/01/22 03:12:11;;;;;;;3.50;2.73;;;6.00;99.90;;;;;;5096480;28;20410;-72
2021/01/22 03:14:39;;;;;;;3.13;2.83;;;6.10;99.90;;;;;;5095519;28;20418;-72
2021/01/22 03:17:05;;;;;;;2.60;2.40;;;6.30;99.90;;;;;;5095577;28;20423;-72
2021/01/22 03:19:50;;;;;;;3.50;3.20;;;6.40;99.90;;;;;;5096608;28;20787;-73
2021/01/22 03:22:15;;;;;;;2.67;2.47;;;6.50;99.90;;;;;;5096951;28;20446;-73
2021/01/22 03:24:41;;;;;;;3.60;2.70;;;6.40;99.90;;;;;;5096292;28;20508;-72
2021/01/22 03:27:08;;;;;;;3.00;2.00;;;6.20;99.90;;;;;;5095105;28;20431;-73
2021/01/22 03:29:35;;;;;;;2.50;2.30;;;6.00;99.90;;;;;;5096016;28;20471;-71
2021/01/22 03:32:01;;;;;;;2.50;2.30;;;6.00;99.90;;;;;;5096230;28;20399;-72
2021/01/22 03:34:27;;;;;;;2.70;2.30;;;5.90;99.90;;;;;;5096620;28;20430;-72
2021/01/22 03:36:55;;;;;;;1.90;1.80;;;5.80;99.90;;;;;;5096289;28;20429;-72
2021/01/22 03:39:22;;;;;;;2.33;2.13;;;5.70;99.90;;;;;;5095726;28;20169;-72
2021/01/22 03:41:47;;;;;;;3.43;2.43;;;5.80;99.90;;;;;;5095468;28;20537;-71
2021/01/22 03:44:13;;;;;;;2.87;2.67;;;5.90;99.90;;;;;;5095382;27;20949;-72
2021/01/22 03:46:38;;;;;;;3.10;2.83;;;5.80;99.90;;;;;;5096843;28;20196;-72
2021/01/22 03:49:04;;;;;;;3.60;2.83;;;5.70;99.90;;;;;;5096088;28;20195;-72
2021/01/22 03:51:29;;;;;;;2.70;2.30;;;5.60;99.90;;;;;;5095251;28;20176;-72
2021/01/22 03:53:55;;;;;;;2.70;2.50;;;5.50;99.90;;;;;;5094799;28;20965;-72
2021/01/22 03:56:20;;;;;;;3.37;2.27;;;5.50;99.90;;;;;;5095909;28;20292;-72
2021/01/22 03:58:46;;;;;;;2.83;2.57;;;5.40;99.90;;;;;;5093517;28;20202;-72
2021/01/22 04:01:12;;;;;;;3.93;3.00;;;5.40;99.90;;;;;;5094472;28;20247;-72
2021/01/22 04:03:38;;;;;;;3.70;3.40;;;5.50;99.90;;;;;;5092936;28;20199;-73
2021/01/22 04:06:03;;;;;;;3.47;3.17;;;5.60;99.90;;;;;;5095900;28;20464;-72
2021/01/22 04:08:29;;;;;;;3.47;3.17;;;5.70;99.90;;;;;;5114918;27;20259;-73
2021/01/22 04:10:54;;;;;;;2.83;2.63;;;5.90;99.90;;;;;;5114983;28;20250;-73
2021/01/22 04:13:20;;;;;;;2.70;2.50;;;6.00;99.90;;;;;;5114503;28;20192;-73
2021/01/22 04:15:46;;;;;;;2.20;2.00;;;6.10;99.90;;;;;;5114430;28;20217;-73
2021/01/22 04:18:12;;;;;;;2.20;2.00;;;6.10;99.90;;;;;;5112715;28;20233;-73
2021/01/22 04:20:37;;;;;;;2.70;2.50;;;6.20;99.90;;;;;;5114710;27;20458;-72
2021/01/22 04:23:03;;;;;;;2.50;2.27;;;6.20;99.90;;;;;;5108457;28;20172;-72
2021/01/22 04:25:28;;;;;;;2.80;2.60;;;6.30;99.90;;;;;;5099535;28;20200;-73
2021/01/22 04:27:54;;;;;;;2.80;2.60;;;6.30;99.90;;;;;;5095262;28;20234;-74
2021/01/22 04:30:20;;;;;;;3.07;2.40;;;6.30;99.90;;;;;;5094060;27;20185;-73
2021/01/22 04:32:46;;;;;;;3.43;3.13;;;6.40;99.90;;;;;;5094409;28;20179;-73
2021/01/22 04:35:15;;;;;;;3.20;3.00;;;6.50;99.90;;;;;;5093563;28;20502;-73
2021/01/22 04:37:44;;;;;;;3.43;3.20;;;6.40;99.90;;;;;;5093171;28;20193;-73
2021/01/22 04:40:11;;;;;;;3.97;3.67;;;6.40;99.90;;;;;;5094394;28;20411;-73
2021/01/22 04:42:43;;;;;;;4.03;3.67;;;6.40;99.90;;;;;;5094032;28;20452;-73
2021/01/22 04:45:10;;;;;;;3.97;3.67;;;6.40;99.90;;;;;;5093342;27;20419;-72
2021/01/22 04:47:38;;;;;;;4.27;3.87;;;6.50;99.90;;;;;;5093607;28;20423;-72
2021/01/22 04:50:05;;;;;;;5.50;4.30;;;6.40;99.90;;;;;;5094889;28;20422;-72
2021/01/22 04:52:32;;;;;;;5.93;5.13;;;6.40;99.90;;;;;;5093839;28;20456;-73
2021/01/22 04:55:00;;;;;;;5.00;4.50;;;6.30;99.90;;;;;;5093392;28;20482;-72
2021/01/22 04:57:29;;;;;;;5.63;5.13;;;6.30;99.90;;;;;;5093957;28;20480;-73
2021/01/22 04:59:54;;;;;;;5.97;4.90;;;6.30;99.90;;;;;;5104367;27;20440;-72
2021/01/22 05:02:20;;;;;;;5.33;4.83;;;6.40;99.90;;;;;;5119827;28;20926;-72
2021/01/22 05:04:46;;;;;;;5.67;5.03;;;6.40;99.90;;;;;;5113422;28;20172;-73
2021/01/22 05:07:12;;;;;;;6.50;5.90;;;6.40;99.90;;;;;;5114651;28;20180;-72
2021/01/22 05:09:39;;;;;;;6.20;5.60;;;6.40;99.90;;;;;;5114006;28;20164;-72
2021/01/22 05:12:05;;;;;;;5.80;5.30;;;6.30;99.90;;;;;;5113472;28;20414;-73
2021/01/22 05:14:33;;;;;;;6.00;5.43;;;6.30;99.90;;;;;;5114037;27;20520;-73
2021/01/22 05:17:04;;;;;;;7.80;6.50;;;6.30;99.90;;;;;;5117880;28;20421;-72
2021/01/22 05:19:29;;;;;;;6.53;5.90;;;6.30;99.90;;;;;;5118644;28;20410;-73
2021/01/22 05:21:56;;;;;;;6.53;5.97;;;6.20;99.90;;;;;;5104028;28;20982;-73
2021/01/22 05:24:26;;;;;;;6.70;5.60;;;6.20;99.90;;;;;;5118567;28;20409;-73
2021/01/22 05:27:12;;;;;;;7.50;6.80;;;6.30;99.90;;;;;;5110726;27;20534;-72
2021/01/22 05:29:40;;;;;;;6.67;6.07;;;6.20;99.90;;;;;;5098277;28;20490;-73
2021/01/22 05:32:25;;;;;;;11.30;7.37;;;6.20;99.90;;;;;;5107315;28;20544;-73
2021/01/22 05:34:51;;;;;;;8.17;6.67;;;6.30;99.90;;;;;;5110450;28;20434;-73
2021/01/22 05:37:16;;;;;;;7.70;6.90;;;6.30;99.90;;;;;;5109823;27;20460;-73
2021/01/22 05:39:42;;;;;;;7.80;7.03;;;6.30;99.90;;;;;;5105986;28;20415;-72
2021/01/22 05:42:08;;;;;;;9.97;7.57;;;6.30;99.90;;;;;;5103584;28;20670;-73
2021/01/22 05:44:34;;;;;;;7.93;7.13;;;6.10;99.90;;;;;;5108122;28;20222;-73
2021/01/22 05:50:22;;;;;;;7.80;7.00;;;6.20;99.90;;;;;;5103861;28;20463;-74
2021/01/22 05:52:48;;;;;;;8.10;7.30;;;6.30;99.90;;;;;;5108491;28;20517;-73
2021/01/22 05:55:22;;;;;;;11.37;8.50;;;6.40;99.90;;;;;;5105678;28;20681;-73
2021/01/22 05:57:48;;;;;;;9.17;8.27;;;6.30;99.90;;;;;;5107910;27;20669;-73
2021/01/22 06:00:15;;;;;;;8.23;7.40;;;6.20;99.90;;;;;;5107840;28;20475;-73
2021/01/22 06:02:41;;;;;;;10.90;8.43;;;6.20;99.90;;;;;;5102961;28;20538;-72
2021/01/22 06:05:15;;;;;;;10.10;7.97;;;6.30;99.90;;;;;;5103325;28;20420;-73
2021/01/22 06:07:42;;;;;;;9.30;7.80;;;6.40;99.90;;;;;;5099495;27;20453;-73
2021/01/22 06:10:16;;;;;;;9.53;8.50;;;6.40;99.90;;;;;;5103157;28;20454;-73
2021/01/22 06:12:50;;;;;;;10.90;8.80;;;6.40;99.90;;;;;;5095593;28;20497;-73
2021/01/22 06:18:39;;;;;;;12.07;9.83;;;6.40;99.90;;;;;;5099720;27;20500;-73
2021/01/22 06:21:17;;;;;;;12.83;9.70;;;6.30;99.90;;;;;;5096174;28;20457;-73
2021/01/22 06:23:47;;;;;;;11.50;9.43;;;6.20;99.90;;;;;;5096307;28;20410;-73
2021/01/22 06:26:14;;;;;;;14.57;9.33;;;6.20;99.90;;;;;;5101095;27;20449;-74
2021/01/22 06:28:40;;;;;;;10.23;8.97;;;6.20;99.90;;;;;;5111707;27;20480;-73
2021/01/22 06:31:08;;;;;;;11.20;9.40;;;6.10;99.90;;;;;;5124982;27;20468;-73
2021/01/22 06:33:35;;;;;;;10.87;9.60;;;6.20;99.90;;;;;;5114978;28;21008;-74
2021/01/22 06:36:01;;;;;;;11.40;9.63;;;6.30;99.90;;;;;;5117132;28;20440;-74
2021/01/22 06:38:29;;;;;;;12.37;9.20;;;6.40;99.90;;;;;;5120361;27;20823;-73
2021/01/22 06:40:56;;;;;;;12.90;10.40;;;6.40;99.90;;;;;;5103002;27;20440;-73
2021/01/22 06:43:22;;;;;;;14.20;10.10;;;6.50;99.90;;;;;;5127637;27;20834;-73
2021/01/22 06:45:47;;;;;;;12.40;9.87;;;6.50;99.90;;;;;;5125208;27;20532;-73
2021/01/22 06:48:13;;;;;;;14.63;10.57;;;6.50;99.90;;;;;;5118842;27;20418;-73
2021/01/22 06:50:39;;;;;;;14.30;10.57;;;6.50;99.90;;;;;;5113800;27;20192;-73
2021/01/22 06:53:13;;;;;;;12.27;9.80;;;6.50;99.90;;;;;;5121456;27;20168;-73
2021/01/22 06:55:53;;;;;;;11.63;9.60;;;6.60;99.90;;;;;;5119920;27;20450;-73
2021/01/22 06:58:23;;;;;;;13.37;10.27;;;6.60;99.90;;;;;;5129836;27;20892;-73
2021/01/22 07:00:49;;;;;;;12.53;9.57;;;6.60;99.90;;;;;;5113398;28;20445;-73
2021/01/22 07:03:36;;;;;;;13.17;9.60;;;6.60;99.90;;;;;;5102925;27;20808;-74
2021/01/22 07:06:03;;;;;;;12.07;9.30;;;6.60;99.90;;;;;;5091839;28;20336;-74
2021/01/22 07:08:53;;;;;;;12.70;9.43;;;6.70;99.90;;;;;;5122773;27;20434;-73
2021/01/22 07:11:20;;;;;;;11.20;8.03;;;6.70;99.90;;;;;;5134042;27;20898;-74
2021/01/22 07:13:46;;;;;;;13.13;9.70;;;6.60;99.90;;;;;;5132536;27;20449;-72
2021/01/22 07:16:18;;;;;;;13.43;10.20;;;6.50;99.90;;;;;;5093725;28;20833;-72
2021/01/22 07:18:47;;;;;;;13.13;9.37;;;6.50;99.90;;;;;;5094545;28;20446;-73
2021/01/22 07:21:32;;;;;;;13.00;8.40;;;6.60;99.90;;;;;;5096017;28;20443;-73
2021/01/22 07:24:00;;;;;;;11.17;8.80;;;6.60;99.90;;;;;;5098770;27;20908;-74
2021/01/22 07:26:35;;;;;;;11.93;8.97;;;6.70;99.90;;;;;;5102577;27;20438;-74
2021/01/22 07:29:19;;;;;;;10.70;8.10;;;6.70;99.90;;;;;;5095452;28;20395;-74
2021/01/22 07:31:56;;;;;;;9.03;8.00;;;6.70;99.90;;;;;;5095031;28;20399;-74
2021/01/22 07:34:45;;;;;;;12.77;9.30;;;6.70;99.90;;;;;;5096243;28;20900;-73
2021/01/22 07:37:19;;;;;;;10.03;8.43;;;6.70;99.90;;;;;;5097393;27;20446;-73
2021/01/22 07:39:45;;;;;;;11.90;9.10;;;6.60;99.90;;;;;;5095412;28;20391;-73
2021/01/22 07:42:16;;;;;;;12.50;9.53;;;6.60;99.90;;;;;;5096415;28;20481;-73
2021/01/22 07:44:49;;;;;;;12.50;9.40;;;6.60;99.90;;;;;;5100049;27;20418;-74
2021/01/22 07:47:28;;;;;;;11.93;9.80;;;6.60;99.90;;;;;;5113935;28;20448;-73
2021/01/22 07:50:10;;;;;;;13.40;9.47;;;6.50;99.90;;;;;;5115205;28;20453;-74
2021/01/22 07:52:41;;;;;;;10.87;9.00;;;6.50;99.90;;;;;;5118856;28;20433;-73
2021/01/22 07:55:16;;;;;;;15.10;9.50;;;6.60;99.90;;;;;;5095709;28;20407;-73
2021/01/22 07:57:42;;;;;;;10.40;8.50;;;6.60;99.90;;;;;;5093308;28;20439;-73
2021/01/22 08:00:09;;;;;;;12.47;9.67;;;6.60;99.90;;;;;;5128607;27;20466;-74
2021/01/22 08:02:35;;;;;;;12.30;9.70;;;6.60;99.90;;;;;;5135786;27;20401;-73
2021/01/22 08:05:04;;;;;;;12.10;8.90;;;6.60;99.90;;;;;;5135429;27;20409;-72
2021/01/22 08:07:37;;;;;;;10.60;8.97;;;6.60;99.90;;;;;;5127877;27;20673;-73
2021/01/22 08:10:11;;;;;;;10.80;8.80;;;6.70;99.90;;;;;;5095635;28;20426;-74
2021/01/22 08:12:38;;;;;;;11.00;8.77;;;6.70;99.90;;;;;;5095473;28;20461;-74
2021/01/22 08:15:16;;;;;;;12.90;9.30;;;6.80;99.90;;;;;;5094641;28;20402;-73
2021/01/22 08:17:46;;;;;;;11.33;9.00;;;6.80;99.90;;;;;;5108230;28;20418;-73
2021/01/22 08:20:14;;;;;;;11.27;8.73;;;6.80;99.90;;;;;;5119181;28;20456;-74
2021/01/22 08:22:39;;;;;;;12.90;8.57;;;6.80;99.90;;;;;;5115892;28;20439;-73
2021/01/22 08:25:06;;;;;;;11.60;8.50;;;6.70;99.90;;;;;;5114632;28;20402;-73
2021/01/22 08:27:31;;;;;;;11.37;8.27;;;6.70;99.90;;;;;;5114916;28;20429;-73
2021/01/22 08:29:57;;;;;;;9.50;8.33;;;6.70;99.90;;;;;;5112672;28;20406;-72
2021/01/22 08:32:24;;;;;;;10.57;7.87;;;6.70;99.90;;;;;;5114977;27;20657;-74
2021/01/22 08:34:50;;;;;;;10.80;8.67;;;6.70;99.90;;;;;;5115253;28;20418;-72
2021/01/22 08:37:16;;;;;;;10.17;7.50;;;6.80;99.90;;;;;;5115937;28;20789;-72
2021/01/22 08:39:58;;;;;;;8.00;7.20;;;6.80;99.90;;;;;;5113137;28;20442;-72
2021/01/22 08:42:28;;;;;;;10.13;7.63;;;6.80;99.90;;;;;;5115914;28;21006;-73
2021/01/22 08:45:02;;;;;;;12.10;9.47;;;6.90;99.90;;;;;;5115033;27;20934;-73
2021/01/22 08:47:30;;;;;;;11.23;8.30;;;6.90;99.90;;;;;;5115113;28;20762;-72
2021/01/22 08:50:03;;;;;;;11.47;8.13;;;6.90;99.90;;;;;;5113172;28;20493;-73
2021/01/22 08:52:30;;;;;;;10.10;7.87;;;6.80;99.90;;;;;;5083896;28;20747;-73
2021/01/22 08:54:57;;;;;;;12.70;8.50;;;6.70;99.90;;;;;;5100079;27;20445;-77
2021/01/22 08:57:25;;;;;;;13.00;7.60;;;6.70;99.90;;;;;;5104520;28;20476;-72
2021/01/22 08:59:55;;;;;;;10.17;7.60;;;6.90;99.90;;;;;;5115546;28;20503;-72
2021/01/22 09:02:42;;;;;;;11.73;8.20;;;6.90;99.90;;;;;;5105707;28;20461;-73
2021/01/22 09:05:18;;;;;;;11.47;7.53;;;6.80;99.90;;;;;;5105630;28;20421;-73
2021/01/22 09:07:44;;;;;;;8.77;6.80;;;6.90;99.90;;;;;;5108346;28;20398;-72
2021/01/22 09:10:26;;;;;;;11.20;6.93;;;6.90;99.90;;;;;;5111102;28;20418;-73
2021/01/22 09:12:52;;;;;;;9.10;6.83;;;6.90;99.90;;;;;;5116361;28;20470;-73
2021/01/22 09:15:20;;;;;;;9.87;7.20;;;6.90;99.90;;;;;;5119993;27;20493;-72
2021/01/22 09:17:50;;;;;;;9.13;6.03;;;6.90;99.90;;;;;;5112940;28;20179;-73
2021/01/22 09:20:20;;;;;;;6.80;5.80;;;7.00;99.90;;;;;;5111170;28;20531;-73
2021/01/22 09:22:51;;;;;;;9.20;6.03;;;7.00;99.90;;;;;;5128110;27;20906;-73
2021/01/22 09:25:23;;;;;;;6.93;6.17;;;6.90;99.90;;;;;;5134973;27;20397;-73
2021/01/22 09:27:50;;;;;;;9.57;6.73;;;6.80;99.90;;;;;;5112916;27;20410;-74
2021/01/22 09:30:21;;;;;;;9.13;6.37;;;6.80;99.90;;;;;;5116586;28;20475;-73
2021/01/22 09:32:52;;;;;;;10.10;5.77;;;6.80;99.90;;;;;;5107257;28;20508;-72
2021/01/22 09:35:19;;;;;;;6.47;5.87;;;6.90;99.90;;;;;;5115399;28;20509;-73
2021/01/22 09:37:44;;;;;;;6.60;5.83;;;6.90;99.90;;;;;;5110116;28;20406;-74
2021/01/22 09:40:11;;;;;;;9.70;6.50;;;7.10;99.90;;;;;;5108404;27;20792;-74
2021/01/22 09:42:37;;;;;;;6.93;6.23;;;7.20;99.90;;;;;;5111502;28;20255;-74
2021/01/22 09:45:08;;;;;;;8.03;5.03;;;7.20;99.90;;;;;;5106110;28;20450;-74
2021/01/22 09:47:34;;;;;;;6.77;6.10;;;7.20;99.90;;;;;;5114085;28;20930;-74
2021/01/22 09:50:00;;;;;;;10.30;7.30;;;7.30;99.90;;;;;;5108119;27;20443;-73
2021/01/22 09:52:26;;;;;;;8.27;6.30;;;7.30;99.90;;;;;;5121646;28;20409;-74
2021/01/22 09:54:52;;;;;;;7.73;6.00;;;7.40;99.90;;;;;;5134398;27;20905;-75
2021/01/22 09:57:18;;;;;;;6.30;5.70;;;7.40;99.90;;;;;;5117522;27;20440;-74
2021/01/22 09:59:43;;;;;;;6.93;6.30;;;7.40;99.90;;;;;;5127022;27;20429;-73
2021/01/22 10:02:09;;;;;;;7.20;6.40;;;7.40;99.90;;;;;;5126260;27;20200;-74
2021/01/22 10:04:35;;;;;;;6.33;5.70;;;7.40;99.90;;;;;;5124318;28;20185;-74
2021/01/22 10:07:02;;;;;;;6.77;5.20;;;7.40;99.90;;;;;;5115662;27;20618;-75
2021/01/22 10:09:28;;;;;;;6.80;5.80;;;7.40;99.90;;;;;;5104210;27;20458;-72
2021/01/22 10:11:54;;;;;;;7.40;5.90;;;7.40;99.90;;;;;;5120368;28;20403;-73
2021/01/22 10:14:20;;;;;;;7.73;5.90;;;7.50;99.90;;;;;;5117957;27;20457;-73
2021/01/22 10:16:45;;;;;;;7.53;6.30;;;7.50;99.90;;;;;;5134573;27;20349;-73
2021/01/22 10:19:11;;;;;;;6.83;5.87;;;7.40;99.90;;;;;;5112171;27;20195;-73
2021/01/22 10:21:36;;;;;;;7.60;6.20;;;7.40;99.90;;;;;;5109424;27;20286;-74
2021/01/22 10:24:02;;;;;;;8.70;5.70;;;7.40;99.90;;;;;;5109289;27;20482;-73
2021/01/22 10:26:28;;;;;;;5.77;5.20;;;7.40;99.90;;;;;;5103144;27;20733;-74
2021/01/22 10:28:54;;;;;;;7.73;5.97;;;7.40;99.90;;;;;;5105267;27;20184;-75
2021/01/22 10:31:20;;;;;;;5.43;4.90;;;7.50;99.90;;;;;;5124134;27;20653;-73
2021/01/22 10:33:47;;;;;;;5.80;4.77;;;7.50;99.90;;;;;;5134042;27;20409;-73
2021/01/22 10:36:14;;;;;;;7.20;5.27;;;7.50;99.90;;;;;;5126246;27;20480;-73
2021/01/22 10:38:40;;;;;;;6.60;5.33;;;7.50;99.90;;;;;;5136691;27;20836;-73
2021/01/22 10:41:06;;;;;;;7.50;4.57;;;7.60;99.90;;;;;;5129690;27;20926;-74
2021/01/22 10:43:31;;;;;;;9.00;4.63;;;7.60;99.90;;;;;;5135361;27;20435;-73
2021/01/22 10:45:57;;;;;;;6.33;4.73;;;7.70;99.90;;;;;;5119173;27;20214;-73
2021/01/22 10:48:23;;;;;;;6.30;4.90;;;7.70;99.90;;;;;;5119855;28;20574;-73
2021/01/22 10:50:50;;;;;;;5.80;4.80;;;7.60;99.90;;;;;;5108514;28;20427;-74
2021/01/22 10:53:17;;;;;;;7.33;5.23;;;7.60;99.90;;;;;;5127722;27;20419;-74
2021/01/22 10:55:43;;;;;;;6.40;5.17;;;7.60;99.90;;;;;;5110092;27;20455;-74
2021/01/22 10:58:08;;;;;;;7.40;5.00;;;7.60;99.90;;;;;;5115791;27;20440;-74
2021/01/22 11:00:34;;;;;;;5.23;4.70;;;7.60;99.90;;;;;;5119876;27;20822;-74
2021/01/22 11:03:01;;;;;;;7.20;4.83;;;7.60;99.90;;;;;;5127079;27;20221;-74
2021/01/22 11:05:26;;;;;;;6.97;5.00;;;7.60;99.90;;;;;;5123163;27;20436;-74
2021/01/22 11:07:52;;;;;;;9.00;5.80;;;7.60;99.90;;;;;;5135893;27;20431;-74
2021/01/22 11:10:18;;;;;;;6.10;5.50;;;7.60;99.90;;;;;;5137496;27;20179;-74
2021/01/22 11:12:43;;;;;;;9.47;5.50;;;7.60;99.90;;;;;;5128520;27;20176;-74
2021/01/22 11:15:09;;;;;;;7.20;5.80;;;7.60;99.90;;;;;;5135429;27;20664;-74
2021/01/22 11:17:35;;;;;;;9.80;6.13;;;7.60;99.90;;;;;;5120551;27;20598;-74
2021/01/22 11:20:04;;;;;;;6.83;6.13;;;7.60;99.90;;;;;;5115404;27;20172;-74
2021/01/22 11:22:30;;;;;;;6.77;4.87;;;7.70;99.90;;;;;;5119620;27;20204;-74
2021/01/22 11:24:56;;;;;;;9.83;5.33;;;7.60;99.90;;;;;;5113741;28;20424;-75
2021/01/22 11:27:21;;;;;;;10.10;6.00;;;7.60;99.90;;;;;;5114452;28;20936;-74
2021/01/22 11:29:47;;;;;;;8.23;6.00;;;7.60;99.90;;;;;;5109930;27;20597;-74
2021/01/22 11:32:13;;;;;;;6.60;5.40;;;7.60;99.90;;;;;;5111319;28;20179;-74
2021/01/22 11:34:38;;;;;;;6.80;6.00;;;7.60;99.90;;;;;;5112601;27;20324;-74
2021/01/22 11:37:04;;;;;;;6.23;5.20;;;7.70;99.90;;;;;;5110522;27;20244;-73
2021/01/22 11:39:30;;;;;;;5.20;4.70;;;7.70;99.90;;;;;;5117923;27;20192;-74
2021/01/22 11:41:56;;;;;;;5.33;4.83;;;7.60;99.90;;;;;;5110809;27;20187;-74
2021/01/22 11:44:22;;;;;;;9.40;6.40;;;7.70;99.90;;;;;;5129465;27;20927;-74
2021/01/22 11:46:47;;;;;;;8.30;6.03;;;7.70;99.90;;;;;;5120422;27;20436;-74
2021/01/22 11:49:13;;;;;;;8.63;5.73;;;7.70;99.90;;;;;;5132559;27;20179;-74
2021/01/22 11:51:38;;;;;;;8.13;5.70;;;7.70;99.90;;;;;;5103712;27;20187;-74
2021/01/22 11:54:05;;;;;;;6.60;5.73;;;7.80;99.90;;;;;;5119506;27;20172;-74
2021/01/22 11:56:31;;;;;;;8.00;5.90;;;7.80;99.90;;;;;;5126447;27;20204;-74
2021/01/22 11:58:57;;;;;;;8.03;6.30;;;7.70;99.90;;;;;;5130490;27;20421;-74
2021/01/22 12:01:25;;;;;;;7.87;5.90;;;7.80;99.90;;;;;;5121509;27;20495;-74
2021/01/22 12:03:51;;;;;;;9.93;6.40;;;7.80;99.90;;;;;;5128915;27;20167;-73
2021/01/22 12:06:17;;;;;;;11.83;6.67;;;7.80;99.90;;;;;;5121321;27;20443;-74
2021/01/22 12:08:43;;;;;;;8.77;6.50;;;7.80;99.90;;;;;;5118990;28;20409;-74
2021/01/22 12:11:09;;;;;;;10.40;6.93;;;7.80;99.90;;;;;;5115111;28;20898;-74
2021/01/22 12:13:34;;;;;;;10.17;7.00;;;7.70;99.90;;;;;;5105520;27;20482;-74
2021/01/22 12:16:00;;;;;;;10.93;6.40;;;7.70;99.90;;;;;;5128082;27;20514;-74
2021/01/22 12:18:25;;;;;;;16.33;7.53;;;7.70;99.90;;;;;;5122578;27;20264;-74
2021/01/22 12:20:52;;;;;;;10.97;6.90;;;7.60;99.90;;;;;;5114013;28;20193;-74
2021/01/22 12:23:18;;;;;;;8.83;6.50;;;7.60;99.90;;;;;;5099823;27;20176;-74
2021/01/22 12:25:46;;;;;;;8.67;6.37;;;7.60;99.90;;;;;;5129515;27;20432;-74
2021/01/22 12:28:15;;;;;;;7.10;5.80;;;7.60;99.90;;;;;;5113131;28;20533;-74
2021/01/22 12:30:42;;;;;;;8.07;5.30;;;7.70;99.90;;;;;;5126842;27;20494;-75
2021/01/22 12:33:08;;;;;;;8.47;6.40;;;7.70;99.90;;;;;;5110849;27;20424;-75
2021/01/22 12:35:33;;;;;;;7.33;6.63;;;7.70;99.90;;;;;;5122028;27;20446;-74
2021/01/22 12:37:59;;;;;;;7.47;6.57;;;7.80;99.90;;;;;;5121408;27;20182;-74
2021/01/22 12:40:25;;;;;;;7.30;5.77;;;7.80;99.90;;;;;;5125586;27;20200;-75
2021/01/22 12:46:13;;;;;;;7.43;5.93;;;7.90;99.90;;;;;;5070370;27;20957;-76
2021/01/22 12:48:39;;;;;;;8.33;5.33;;;7.90;99.90;;;;;;5112472;27;20423;-76
2021/01/22 12:51:05;;;;;;;7.00;5.50;;;7.90;99.90;;;;;;5113010;27;20183;-74
2021/01/22 12:53:30;;;;;;;6.77;5.40;;;7.80;99.90;;;;;;5112341;28;20405;-74
2021/01/22 12:55:56;;;;;;;7.70;5.40;;;7.80;99.90;;;;;;5116883;28;20244;-74
2021/01/22 12:58:21;;;;;;;6.13;5.27;;;7.80;99.90;;;;;;5124431;27;20164;-74
2021/01/22 13:01:27;;;;;;;8.53;5.03;;;7.80;99.90;;;;;;5110634;28;20194;-74
2021/01/22 13:03:52;;;;;;;7.00;4.77;;;7.80;99.90;;;;;;5088481;28;20236;-74
2021/01/22 13:06:18;;;;;;;5.10;4.60;;;7.70;99.90;;;;;;5126620;28;20429;-74